sensor_id;sensor_type;location;lat;lon;timestamp;temperature;humidity
18392;DHT22;9322;50.932;5.318;2022-11-15T00:01:34;11.60;99.90
18392;DHT22;9322;50.932;5.318;2022-11-15T00:03:59;11.70;99.90
18392;DHT22;9322;50.932;5.318;2022-11-15T00:06:25;11.70;99.90
18392;DHT22;9322;50.932;5.318;2022-11-15T00:08:51;11.70;99.90
18392;DHT22;9322;50.932;5.318;2022-11-15T00:11:17;11.60;99.90
18392;DHT22;9322;50.932;5.318;2022-11-15T00:13:43;11.70;99.90
18392;DHT22;9322;50.932;5.318;2022-11-15T00:16:09;11.70;99.90
18392;DHT22;9322;50.932;5.318;2022-11-15T00:18:35;12.00;99.90
18392;DHT22;9322;50.932;5.318;2022-11-15T00:21:07;11.90;99.90
18392;DHT22;9322;50.932;5.318;2022-11-15T00:23:37;11.70;99.90
18392;DHT22;9322;50.932;5.318;2022-11-15T00:26:03;11.80;99.90
18392;DHT22;9322;50.932;5.318;2022-11-15T00:28:29;11.80;99.90
18392;DHT22;9322;50.932;5.318;2022-11-15T00:31:03;11.70;99.90
18392;DHT22;9322;50.932;5.318;2022-11-15T00:33:30;11.70;99.90
18392;DHT22;9322;50.932;5.318;2022-11-15T00:36:05;11.70;99.90
18392;DHT22;9322;50.932;5.318;2022-11-15T00:38:36;11.70;99.90
18392;DHT22;9322;50.932;5.318;2022-11-15T00:41:03;11.70;99.90
18392;DHT22;9322;50.932;5.318;2022-11-15T00:43:29;11.70;99.90
18392;DHT22;9322;50.932;5.318;2022-11-15T00:45:55;11.70;99.90
18392;DHT22;9322;50.932;5.318;2022-11-15T00:48:20;11.80;99.90
18392;DHT22;9322;50.932;5.318;2022-11-15T00:50:46;11.90;99.90
18392;DHT22;9322;50.932;5.318;2022-11-15T00:53:12;11.90;99.90
18392;DHT22;9322;50.932;5.318;2022-11-15T00:55:37;11.90;99.90
18392;DHT22;9322;50.932;5.318;2022-11-15T00:58:03;11.90;99.90
18392;DHT22;9322;50.932;5.318;2022-11-15T01:00:29;11.90;99.90
18392;DHT22;9322;50.932;5.318;2022-11-15T01:02:54;11.90;99.90
18392;DHT22;9322;50.932;5.318;2022-11-15T01:05:20;11.80;99.90
18392;DHT22;9322;50.932;5.318;2022-11-15T01:07:46;11.90;99.90
18392;DHT22;9322;50.932;5.318;2022-11-15T01:10:12;11.90;99.90
18392;DHT22;9322;50.932;5.318;2022-11-15T01:12:37;11.90;99.90
18392;DHT22;9322;50.932;5.318;2022-11-15T01:15:04;11.90;99.90
18392;DHT22;9322;50.932;5.318;2022-11-15T01:17:30;11.90;99.90
18392;DHT22;9322;50.932;5.318;2022-11-15T01:19:56;12.00;99.90
18392;DHT22;9322;50.932;5.318;2022-11-15T01:22:21;11.90;99.90
18392;DHT22;9322;50.932;5.318;2022-11-15T01:24:48;12.10;99.90
18392;DHT22;9322;50.932;5.318;2022-11-15T01:27:14;12.00;99.90
18392;DHT22;9322;50.932;5.318;2022-11-15T01:29:40;12.00;99.90
18392;DHT22;9322;50.932;5.318;2022-11-15T01:32:05;12.10;99.90
18392;DHT22;9322;50.932;5.318;2022-11-15T01:34:31;12.20;99.90
18392;DHT22;9322;50.932;5.318;2022-11-15T01:36:57;12.10;99.90
18392;DHT22;9322;50.932;5.318;2022-11-15T01:39:23;12.30;99.90
18392;DHT22;9322;50.932;5.318;2022-11-15T01:41:48;12.10;99.90
18392;DHT22;9322;50.932;5.318;2022-11-15T01:47:01;12.20;99.90
18392;DHT22;9322;50.932;5.318;2022-11-15T01:49:30;12.20;99.90
18392;DHT22;9322;50.932;5.318;2022-11-15T01:51:59;12.20;99.90
18392;DHT22;9322;50.932;5.318;2022-11-15T01:54:25;12.20;99.90
18392;DHT22;9322;50.932;5.318;2022-11-15T01:57:21;12.20;99.90
18392;DHT22;9322;50.932;5.318;2022-11-15T01:59:47;12.30;99.90
18392;DHT22;9322;50.932;5.318;2022-11-15T02:02:12;12.30;99.90
18392;DHT22;9322;50.932;5.318;2022-11-15T02:04:47;12.20;99.90
18392;DHT22;9322;50.932;5.318;2022-11-15T02:07:16;12.30;99.90
18392;DHT22;9322;50.932;5.318;2022-11-15T02:09:44;12.30;99.90
18392;DHT22;9322;50.932;5.318;2022-11-15T02:12:10;12.30;99.90
18392;DHT22;9322;50.932;5.318;2022-11-15T02:14:40;12.20;99.90
18392;DHT22;9322;50.932;5.318;2022-11-15T02:25:36;12.40;99.90
18392;DHT22;9322;50.932;5.318;2022-11-15T02:36:01;12.50;99.90
18392;DHT22;9322;50.932;5.318;2022-11-15T02:38:47;12.60;99.90
18392;DHT22;9322;50.932;5.318;2022-11-15T02:41:35;12.60;99.90
18392;DHT22;9322;50.932;5.318;2022-11-15T02:44:19;12.60;99.90
18392;DHT22;9322;50.932;5.318;2022-11-15T02:46:54;12.60;99.90
18392;DHT22;9322;50.932;5.318;2022-11-15T02:49:47;12.50;99.90
18392;DHT22;9322;50.932;5.318;2022-11-15T02:52:21;12.60;99.90
18392;DHT22;9322;50.932;5.318;2022-11-15T02:54:58;12.50;99.90
18392;DHT22;9322;50.932;5.318;2022-11-15T02:57:46;12.30;99.90
18392;DHT22;9322;50.932;5.318;2022-11-15T03:00:18;12.50;99.90
18392;DHT22;9322;50.932;5.318;2022-11-15T03:06:31;12.50;99.90
18392;DHT22;9322;50.932;5.318;2022-11-15T03:09:35;12.40;99.90
18392;DHT22;9322;50.932;5.318;2022-11-15T03:12:28;12.40;99.90
18392;DHT22;9322;50.932;5.318;2022-11-15T03:15:04;12.40;99.90
18392;DHT22;9322;50.932;5.318;2022-11-15T03:17:37;12.40;99.90
18392;DHT22;9322;50.932;5.318;2022-11-15T03:20:06;12.30;99.90
18392;DHT22;9322;50.932;5.318;2022-11-15T03:22:39;12.40;99.90
18392;DHT22;9322;50.932;5.318;2022-11-15T03:25:08;12.40;99.90
18392;DHT22;9322;50.932;5.318;2022-11-15T03:27:39;12.30;99.90
18392;DHT22;9322;50.932;5.318;2022-11-15T03:30:08;12.30;99.90
18392;DHT22;9322;50.932;5.318;2022-11-15T03:32:44;12.30;99.90
18392;DHT22;9322;50.932;5.318;2022-11-15T03:35:21;12.20;99.90
18392;DHT22;9322;50.932;5.318;2022-11-15T03:46:05;12.20;99.90
18392;DHT22;9322;50.932;5.318;2022-11-15T03:48:41;12.20;99.90
18392;DHT22;9322;50.932;5.318;2022-11-15T03:51:09;12.30;99.90
18392;DHT22;9322;50.932;5.318;2022-11-15T03:53:36;12.30;99.90
18392;DHT22;9322;50.932;5.318;2022-11-15T03:56:02;12.30;99.90
18392;DHT22;9322;50.932;5.318;2022-11-15T03:58:28;12.30;99.90
18392;DHT22;9322;50.932;5.318;2022-11-15T04:00:53;12.20;99.90
18392;DHT22;9322;50.932;5.318;2022-11-15T04:03:19;12.40;99.90
18392;DHT22;9322;50.932;5.318;2022-11-15T04:05:45;12.30;99.90
18392;DHT22;9322;50.932;5.318;2022-11-15T04:08:10;12.40;99.90
18392;DHT22;9322;50.932;5.318;2022-11-15T04:10:36;12.50;99.90
18392;DHT22;9322;50.932;5.318;2022-11-15T04:13:02;12.30;99.90
18392;DHT22;9322;50.932;5.318;2022-11-15T04:15:28;12.30;99.90
18392;DHT22;9322;50.932;5.318;2022-11-15T04:17:56;12.30;99.90
18392;DHT22;9322;50.932;5.318;2022-11-15T04:20:24;12.30;99.90
18392;DHT22;9322;50.932;5.318;2022-11-15T04:23:14;12.30;99.90
18392;DHT22;9322;50.932;5.318;2022-11-15T04:26:02;12.30;99.90
18392;DHT22;9322;50.932;5.318;2022-11-15T04:28:29;12.30;99.90
18392;DHT22;9322;50.932;5.318;2022-11-15T04:30:54;12.30;99.90
18392;DHT22;9322;50.932;5.318;2022-11-15T04:33:21;12.30;99.90
18392;DHT22;9322;50.932;5.318;2022-11-15T04:35:47;12.40;99.90
18392;DHT22;9322;50.932;5.318;2022-11-15T04:38:32;12.30;99.90
18392;DHT22;9322;50.932;5.318;2022-11-15T04:40:58;12.50;99.90
18392;DHT22;9322;50.932;5.318;2022-11-15T04:43:24;12.30;99.90
18392;DHT22;9322;50.932;5.318;2022-11-15T04:45:49;12.10;99.90
18392;DHT22;9322;50.932;5.318;2022-11-15T04:48:15;12.00;99.90
18392;DHT22;9322;50.932;5.318;2022-11-15T04:50:41;11.90;99.90
18392;DHT22;9322;50.932;5.318;2022-11-15T04:53:06;11.80;99.90
18392;DHT22;9322;50.932;5.318;2022-11-15T04:55:32;12.00;99.90
18392;DHT22;9322;50.932;5.318;2022-11-15T04:57:59;11.80;99.90
18392;DHT22;9322;50.932;5.318;2022-11-15T05:00:28;11.60;99.90
18392;DHT22;9322;50.932;5.318;2022-11-15T05:02:55;11.60;99.90
18392;DHT22;9322;50.932;5.318;2022-11-15T05:05:39;11.50;99.90
18392;DHT22;9322;50.932;5.318;2022-11-15T05:08:05;11.60;99.90
18392;DHT22;9322;50.932;5.318;2022-11-15T05:10:31;11.70;99.90
18392;DHT22;9322;50.932;5.318;2022-11-15T05:12:56;11.40;99.90
18392;DHT22;9322;50.932;5.318;2022-11-15T05:15:24;11.40;99.90
18392;DHT22;9322;50.932;5.318;2022-11-15T05:17:57;11.40;99.90
18392;DHT22;9322;50.932;5.318;2022-11-15T05:20:30;11.50;99.90
18392;DHT22;9322;50.932;5.318;2022-11-15T05:23:24;11.40;99.90
18392;DHT22;9322;50.932;5.318;2022-11-15T05:25:52;11.30;99.90
18392;DHT22;9322;50.932;5.318;2022-11-15T05:28:18;11.30;99.90
18392;DHT22;9322;50.932;5.318;2022-11-15T05:30:44;11.20;99.90
18392;DHT22;9322;50.932;5.318;2022-11-15T05:33:10;11.20;99.90
18392;DHT22;9322;50.932;5.318;2022-11-15T05:35:42;11.30;99.90
18392;DHT22;9322;50.932;5.318;2022-11-15T05:38:11;11.30;99.90
18392;DHT22;9322;50.932;5.318;2022-11-15T05:40:37;11.30;99.90
18392;DHT22;9322;50.932;5.318;2022-11-15T05:43:04;11.20;99.90
18392;DHT22;9322;50.932;5.318;2022-11-15T05:45:31;11.20;99.90
18392;DHT22;9322;50.932;5.318;2022-11-15T05:47:59;11.20;99.90
18392;DHT22;9322;50.932;5.318;2022-11-15T05:50:27;11.10;99.90
18392;DHT22;9322;50.932;5.318;2022-11-15T05:52:54;11.10;99.90
18392;DHT22;9322;50.932;5.318;2022-11-15T05:55:20;11.10;99.90
18392;DHT22;9322;50.932;5.318;2022-11-15T05:57:46;11.20;99.90
18392;DHT22;9322;50.932;5.318;2022-11-15T06:00:12;11.00;99.90
18392;DHT22;9322;50.932;5.318;2022-11-15T06:02:37;11.00;99.90
18392;DHT22;9322;50.932;5.318;2022-11-15T06:05:03;11.00;99.90
18392;DHT22;9322;50.932;5.318;2022-11-15T06:07:30;11.00;99.90
18392;DHT22;9322;50.932;5.318;2022-11-15T06:09:56;10.90;99.90
18392;DHT22;9322;50.932;5.318;2022-11-15T06:12:21;10.90;99.90
18392;DHT22;9322;50.932;5.318;2022-11-15T06:14:47;10.90;99.90
18392;DHT22;9322;50.932;5.318;2022-11-15T06:17:13;10.80;99.90
18392;DHT22;9322;50.932;5.318;2022-11-15T06:19:38;10.80;99.90
18392;DHT22;9322;50.932;5.318;2022-11-15T06:22:04;10.80;99.90
18392;DHT22;9322;50.932;5.318;2022-11-15T06:24:30;10.90;99.90
18392;DHT22;9322;50.932;5.318;2022-11-15T06:26:56;10.90;99.90
18392;DHT22;9322;50.932;5.318;2022-11-15T06:29:22;10.90;99.90
18392;DHT22;9322;50.932;5.318;2022-11-15T06:31:48;10.80;99.90
18392;DHT22;9322;50.932;5.318;2022-11-15T06:34:14;11.00;99.90
18392;DHT22;9322;50.932;5.318;2022-11-15T06:36:40;10.80;99.90
18392;DHT22;9322;50.932;5.318;2022-11-15T06:39:05;10.80;99.90
18392;DHT22;9322;50.932;5.318;2022-11-15T06:41:34;10.80;99.90
18392;DHT22;9322;50.932;5.318;2022-11-15T06:44:00;10.60;99.90
18392;DHT22;9322;50.932;5.318;2022-11-15T06:46:26;10.60;99.90
18392;DHT22;9322;50.932;5.318;2022-11-15T06:48:52;10.60;99.90
18392;DHT22;9322;50.932;5.318;2022-11-15T06:51:18;10.80;99.90
18392;DHT22;9322;50.932;5.318;2022-11-15T06:53:44;10.60;99.90
18392;DHT22;9322;50.932;5.318;2022-11-15T06:56:09;10.50;99.90
18392;DHT22;9322;50.932;5.318;2022-11-15T06:58:36;10.50;99.90
18392;DHT22;9322;50.932;5.318;2022-11-15T07:01:07;10.50;99.90
18392;DHT22;9322;50.932;5.318;2022-11-15T07:03:38;10.40;99.90
18392;DHT22;9322;50.932;5.318;2022-11-15T07:06:04;10.50;99.90
18392;DHT22;9322;50.932;5.318;2022-11-15T07:08:30;10.60;99.90
18392;DHT22;9322;50.932;5.318;2022-11-15T07:11:00;10.60;99.90
18392;DHT22;9322;50.932;5.318;2022-11-15T07:13:28;10.60;99.90
18392;DHT22;9322;50.932;5.318;2022-11-15T07:15:54;10.60;99.90
18392;DHT22;9322;50.932;5.318;2022-11-15T07:18:20;10.40;99.90
18392;DHT22;9322;50.932;5.318;2022-11-15T07:20:46;10.40;99.90
18392;DHT22;9322;50.932;5.318;2022-11-15T07:23:12;10.40;99.90
18392;DHT22;9322;50.932;5.318;2022-11-15T07:25:37;10.60;99.90
18392;DHT22;9322;50.932;5.318;2022-11-15T07:28:03;10.40;99.90
18392;DHT22;9322;50.932;5.318;2022-11-15T07:30:29;10.50;99.90
18392;DHT22;9322;50.932;5.318;2022-11-15T07:32:59;10.50;99.90
18392;DHT22;9322;50.932;5.318;2022-11-15T07:35:26;10.60;99.90
18392;DHT22;9322;50.932;5.318;2022-11-15T07:37:56;10.80;99.90
18392;DHT22;9322;50.932;5.318;2022-11-15T07:40:23;10.60;99.90
18392;DHT22;9322;50.932;5.318;2022-11-15T07:42:49;10.60;99.90
18392;DHT22;9322;50.932;5.318;2022-11-15T07:45:23;10.60;99.90
18392;DHT22;9322;50.932;5.318;2022-11-15T07:47:51;10.70;99.90
18392;DHT22;9322;50.932;5.318;2022-11-15T07:50:17;10.60;99.90
18392;DHT22;9322;50.932;5.318;2022-11-15T07:52:43;10.50;99.90
18392;DHT22;9322;50.932;5.318;2022-11-15T07:55:09;10.60;99.90
18392;DHT22;9322;50.932;5.318;2022-11-15T07:57:35;10.50;99.90
18392;DHT22;9322;50.932;5.318;2022-11-15T08:00:01;10.70;99.90
18392;DHT22;9322;50.932;5.318;2022-11-15T08:02:27;11.10;99.90
18392;DHT22;9322;50.932;5.318;2022-11-15T08:04:52;11.50;99.90
18392;DHT22;9322;50.932;5.318;2022-11-15T08:07:18;11.90;99.90
18392;DHT22;9322;50.932;5.318;2022-11-15T08:09:43;12.10;99.90
18392;DHT22;9322;50.932;5.318;2022-11-15T08:12:09;12.10;99.90
18392;DHT22;9322;50.932;5.318;2022-11-15T08:14:35;12.40;99.90
18392;DHT22;9322;50.932;5.318;2022-11-15T08:17:01;12.00;99.90
18392;DHT22;9322;50.932;5.318;2022-11-15T08:19:26;12.00;99.90
18392;DHT22;9322;50.932;5.318;2022-11-15T08:21:52;12.30;99.90
18392;DHT22;9322;50.932;5.318;2022-11-15T08:24:18;12.30;99.90
18392;DHT22;9322;50.932;5.318;2022-11-15T08:26:43;12.20;99.90
18392;DHT22;9322;50.932;5.318;2022-11-15T08:29:09;12.10;99.90
18392;DHT22;9322;50.932;5.318;2022-11-15T08:31:36;11.90;99.90
18392;DHT22;9322;50.932;5.318;2022-11-15T08:34:03;12.20;99.90
18392;DHT22;9322;50.932;5.318;2022-11-15T08:36:28;12.60;99.90
18392;DHT22;9322;50.932;5.318;2022-11-15T08:38:54;13.10;99.90
18392;DHT22;9322;50.932;5.318;2022-11-15T08:41:30;13.60;99.90
18392;DHT22;9322;50.932;5.318;2022-11-15T08:43:56;13.30;99.90
18392;DHT22;9322;50.932;5.318;2022-11-15T08:46:21;13.50;99.90
18392;DHT22;9322;50.932;5.318;2022-11-15T08:48:47;14.40;99.90
18392;DHT22;9322;50.932;5.318;2022-11-15T08:51:13;14.50;99.90
18392;DHT22;9322;50.932;5.318;2022-11-15T08:53:38;14.50;95.20
18392;DHT22;9322;50.932;5.318;2022-11-15T08:56:08;14.70;92.70
18392;DHT22;9322;50.932;5.318;2022-11-15T08:58:35;14.00;92.20
18392;DHT22;9322;50.932;5.318;2022-11-15T09:01:00;14.40;90.80
18392;DHT22;9322;50.932;5.318;2022-11-15T09:03:26;15.00;85.90
18392;DHT22;9322;50.932;5.318;2022-11-15T09:05:59;15.50;79.20
18392;DHT22;9322;50.932;5.318;2022-11-15T09:08:28;14.80;82.80
18392;DHT22;9322;50.932;5.318;2022-11-15T09:10:54;15.30;81.60
18392;DHT22;9322;50.932;5.318;2022-11-15T09:13:20;15.40;77.80
18392;DHT22;9322;50.932;5.318;2022-11-15T09:15:45;14.70;81.80
18392;DHT22;9322;50.932;5.318;2022-11-15T09:18:11;14.70;85.10
18392;DHT22;9322;50.932;5.318;2022-11-15T09:20:37;14.40;84.60
18392;DHT22;9322;50.932;5.318;2022-11-15T09:23:03;14.10;88.40
18392;DHT22;9322;50.932;5.318;2022-11-15T09:25:29;13.90;86.30
18392;DHT22;9322;50.932;5.318;2022-11-15T09:27:55;13.60;94.40
18392;DHT22;9322;50.932;5.318;2022-11-15T09:30:21;13.70;89.20
18392;DHT22;9322;50.932;5.318;2022-11-15T09:32:47;13.70;92.80
18392;DHT22;9322;50.932;5.318;2022-11-15T09:35:13;14.10;86.00
18392;DHT22;9322;50.932;5.318;2022-11-15T09:37:38;13.90;87.70
18392;DHT22;9322;50.932;5.318;2022-11-15T09:40:04;13.60;95.80
18392;DHT22;9322;50.932;5.318;2022-11-15T09:51:14;14.60;86.80
18392;DHT22;9322;50.932;5.318;2022-11-15T09:53:51;15.40;81.10
18392;DHT22;9322;50.932;5.318;2022-11-15T09:56:26;15.40;80.90
18392;DHT22;9322;50.932;5.318;2022-11-15T10:04:31;15.10;77.20
18392;DHT22;9322;50.932;5.318;2022-11-15T10:07:16;15.60;74.30
18392;DHT22;9322;50.932;5.318;2022-11-15T10:10:36;15.40;78.60
18392;DHT22;9322;50.932;5.318;2022-11-15T10:12:33;16.70;69.80
18392;DHT22;9322;50.932;5.318;2022-11-15T10:15:05;16.70;70.20
18392;DHT22;9322;50.932;5.318;2022-11-15T10:17:49;16.90;65.90
18392;DHT22;9322;50.932;5.318;2022-11-15T10:20:28;16.10;66.90
18392;DHT22;9322;50.932;5.318;2022-11-15T10:22:59;15.80;69.20
18392;DHT22;9322;50.932;5.318;2022-11-15T10:25:30;16.20;69.10
18392;DHT22;9322;50.932;5.318;2022-11-15T10:28:01;15.50;69.20
18392;DHT22;9322;50.932;5.318;2022-11-15T10:30:34;15.50;69.60
18392;DHT22;9322;50.932;5.318;2022-11-15T10:41:14;14.60;76.60
18392;DHT22;9322;50.932;5.318;2022-11-15T10:43:40;14.00;77.00
18392;DHT22;9322;50.932;5.318;2022-11-15T10:46:23;13.50;79.80
18392;DHT22;9322;50.932;5.318;2022-11-15T10:48:49;13.10;87.60
18392;DHT22;9322;50.932;5.318;2022-11-15T10:51:26;13.20;89.30
18392;DHT22;9322;50.932;5.318;2022-11-15T10:53:58;13.30;93.00
18392;DHT22;9322;50.932;5.318;2022-11-15T10:56:25;13.10;93.20
18392;DHT22;9322;50.932;5.318;2022-11-15T10:58:56;13.30;88.20
18392;DHT22;9322;50.932;5.318;2022-11-15T11:01:25;12.90;89.70
18392;DHT22;9322;50.932;5.318;2022-11-15T11:04:07;13.00;87.10
18392;DHT22;9322;50.932;5.318;2022-11-15T11:09:37;13.00;86.70
18392;DHT22;9322;50.932;5.318;2022-11-15T11:12:05;13.60;83.00
18392;DHT22;9322;50.932;5.318;2022-11-15T11:14:34;14.00;77.90
18392;DHT22;9322;50.932;5.318;2022-11-15T11:28:31;14.40;72.80
18392;DHT22;9322;50.932;5.318;2022-11-15T11:36:56;14.30;74.40
18392;DHT22;9322;50.932;5.318;2022-11-15T11:47:11;14.60;71.20
18392;DHT22;9322;50.932;5.318;2022-11-15T11:49:44;14.40;72.10
18392;DHT22;9322;50.932;5.318;2022-11-15T11:55:16;14.50;73.10
18392;DHT22;9322;50.932;5.318;2022-11-15T11:57:45;14.50;72.60
18392;DHT22;9322;50.932;5.318;2022-11-15T12:02:45;14.20;74.30
18392;DHT22;9322;50.932;5.318;2022-11-15T12:05:39;14.00;76.00
18392;DHT22;9322;50.932;5.318;2022-11-15T12:14:05;14.00;79.00
18392;DHT22;9322;50.932;5.318;2022-11-15T12:16:32;13.60;83.60
18392;DHT22;9322;50.932;5.318;2022-11-15T12:19:04;13.70;81.90
18392;DHT22;9322;50.932;5.318;2022-11-15T12:21:54;13.70;83.70
18392;DHT22;9322;50.932;5.318;2022-11-15T12:30:04;13.70;86.70
18392;DHT22;9322;50.932;5.318;2022-11-15T12:32:38;13.60;86.80
18392;DHT22;9322;50.932;5.318;2022-11-15T12:37:54;13.60;90.70
18392;DHT22;9322;50.932;5.318;2022-11-15T12:41:14;13.60;90.90
18392;DHT22;9322;50.932;5.318;2022-11-15T12:43:42;14.00;89.00
18392;DHT22;9322;50.932;5.318;2022-11-15T12:59:54;14.40;87.50
18392;DHT22;9322;50.932;5.318;2022-11-15T13:02:24;14.30;87.40
18392;DHT22;9322;50.932;5.318;2022-11-15T13:04:52;14.20;89.20
18392;DHT22;9322;50.932;5.318;2022-11-15T13:17:49;14.30;93.30
18392;DHT22;9322;50.932;5.318;2022-11-15T13:27:58;14.40;95.10
18392;DHT22;9322;50.932;5.318;2022-11-15T13:30:27;14.40;92.70
18392;DHT22;9322;50.932;5.318;2022-11-15T13:32:53;14.10;96.40
18392;DHT22;9322;50.932;5.318;2022-11-15T13:35:22;14.20;96.90
18392;DHT22;9322;50.932;5.318;2022-11-15T13:37:49;14.20;96.80
18392;DHT22;9322;50.932;5.318;2022-11-15T13:42:41;14.30;97.10
18392;DHT22;9322;50.932;5.318;2022-11-15T13:45:13;14.30;99.60
18392;DHT22;9322;50.932;5.318;2022-11-15T13:47:40;14.30;98.00
18392;DHT22;9322;50.932;5.318;2022-11-15T13:50:10;14.40;99.90
18392;DHT22;9322;50.932;5.318;2022-11-15T13:52:37;14.40;98.40
18392;DHT22;9322;50.932;5.318;2022-11-15T13:55:12;14.30;99.90
18392;DHT22;9322;50.932;5.318;2022-11-15T13:58:00;14.30;99.70
18392;DHT22;9322;50.932;5.318;2022-11-15T14:00:45;14.40;99.00
18392;DHT22;9322;50.932;5.318;2022-11-15T14:03:19;14.30;99.70
18392;DHT22;9322;50.932;5.318;2022-11-15T14:06:12;14.20;99.90
18392;DHT22;9322;50.932;5.318;2022-11-15T14:08:57;14.30;99.90
18392;DHT22;9322;50.932;5.318;2022-11-15T14:11:23;14.20;99.90
18392;DHT22;9322;50.932;5.318;2022-11-15T14:16:47;14.20;99.90
18392;DHT22;9322;50.932;5.318;2022-11-15T14:19:34;14.40;99.60
18392;DHT22;9322;50.932;5.318;2022-11-15T14:22:18;14.40;99.40
18392;DHT22;9322;50.932;5.318;2022-11-15T14:24:47;14.30;99.30
18392;DHT22;9322;50.932;5.318;2022-11-15T14:27:29;14.20;99.90
18392;DHT22;9322;50.932;5.318;2022-11-15T14:29:55;14.30;99.90
18392;DHT22;9322;50.932;5.318;2022-11-15T14:32:24;14.20;99.90
18392;DHT22;9322;50.932;5.318;2022-11-15T14:35:01;14.20;99.90
18392;DHT22;9322;50.932;5.318;2022-11-15T14:37:29;14.30;99.90
18392;DHT22;9322;50.932;5.318;2022-11-15T14:40:04;14.20;99.90
18392;DHT22;9322;50.932;5.318;2022-11-15T14:42:30;14.20;99.90
18392;DHT22;9322;50.932;5.318;2022-11-15T14:44:56;14.00;99.90
18392;DHT22;9322;50.932;5.318;2022-11-15T14:47:21;14.00;99.90
18392;DHT22;9322;50.932;5.318;2022-11-15T14:49:47;14.00;99.90
18392;DHT22;9322;50.932;5.318;2022-11-15T14:54:48;14.10;99.90
18392;DHT22;9322;50.932;5.318;2022-11-15T14:57:13;14.10;99.90
18392;DHT22;9322;50.932;5.318;2022-11-15T14:59:39;14.00;99.90
18392;DHT22;9322;50.932;5.318;2022-11-15T15:02:14;14.00;99.90
18392;DHT22;9322;50.932;5.318;2022-11-15T15:04:41;14.00;99.90
18392;DHT22;9322;50.932;5.318;2022-11-15T15:07:07;14.10;99.90
18392;DHT22;9322;50.932;5.318;2022-11-15T15:09:33;14.20;99.90
18392;DHT22;9322;50.932;5.318;2022-11-15T15:11:58;14.20;99.90
18392;DHT22;9322;50.932;5.318;2022-11-15T15:14:24;14.00;99.90
18392;DHT22;9322;50.932;5.318;2022-11-15T15:16:49;14.00;99.90
18392;DHT22;9322;50.932;5.318;2022-11-15T15:19:15;14.10;99.90
18392;DHT22;9322;50.932;5.318;2022-11-15T15:21:41;14.10;99.90
18392;DHT22;9322;50.932;5.318;2022-11-15T15:24:13;14.00;99.90
18392;DHT22;9322;50.932;5.318;2022-11-15T15:26:39;14.00;99.90
18392;DHT22;9322;50.932;5.318;2022-11-15T15:29:05;13.90;99.90
18392;DHT22;9322;50.932;5.318;2022-11-15T15:31:30;13.70;99.90
18392;DHT22;9322;50.932;5.318;2022-11-15T15:33:58;13.50;99.90
18392;DHT22;9322;50.932;5.318;2022-11-15T15:36:23;13.30;99.90
18392;DHT22;9322;50.932;5.318;2022-11-15T15:38:49;13.20;99.90
18392;DHT22;9322;50.932;5.318;2022-11-15T15:41:16;13.10;99.90
18392;DHT22;9322;50.932;5.318;2022-11-15T15:43:42;13.00;99.90
18392;DHT22;9322;50.932;5.318;2022-11-15T15:46:13;12.90;99.90
18392;DHT22;9322;50.932;5.318;2022-11-15T15:48:39;13.00;99.90
18392;DHT22;9322;50.932;5.318;2022-11-15T15:51:05;12.80;99.90
18392;DHT22;9322;50.932;5.318;2022-11-15T15:53:31;12.70;99.90
18392;DHT22;9322;50.932;5.318;2022-11-15T15:55:57;12.60;99.90
18392;DHT22;9322;50.932;5.318;2022-11-15T15:58:23;12.70;99.90
18392;DHT22;9322;50.932;5.318;2022-11-15T16:00:48;12.50;99.90
18392;DHT22;9322;50.932;5.318;2022-11-15T16:03:14;12.40;99.90
18392;DHT22;9322;50.932;5.318;2022-11-15T16:05:39;12.40;99.90
18392;DHT22;9322;50.932;5.318;2022-11-15T16:08:05;12.30;99.90
18392;DHT22;9322;50.932;5.318;2022-11-15T16:10:32;12.30;99.90
18392;DHT22;9322;50.932;5.318;2022-11-15T16:13:02;12.20;99.90
18392;DHT22;9322;50.932;5.318;2022-11-15T16:15:30;12.20;99.90
18392;DHT22;9322;50.932;5.318;2022-11-15T16:17:58;12.10;99.90
18392;DHT22;9322;50.932;5.318;2022-11-15T16:20:39;12.20;99.90
18392;DHT22;9322;50.932;5.318;2022-11-15T16:23:08;12.30;99.90
18392;DHT22;9322;50.932;5.318;2022-11-15T16:25:39;12.20;99.90
18392;DHT22;9322;50.932;5.318;2022-11-15T16:30:43;12.10;99.90
18392;DHT22;9322;50.932;5.318;2022-11-15T16:33:08;12.10;99.90
18392;DHT22;9322;50.932;5.318;2022-11-15T16:35:34;12.10;99.90
18392;DHT22;9322;50.932;5.318;2022-11-15T16:38:00;11.90;99.90
18392;DHT22;9322;50.932;5.318;2022-11-15T16:40:28;11.90;99.90
18392;DHT22;9322;50.932;5.318;2022-11-15T16:42:55;11.90;99.90
18392;DHT22;9322;50.932;5.318;2022-11-15T16:45:22;11.90;99.90
18392;DHT22;9322;50.932;5.318;2022-11-15T16:47:48;11.80;99.90
18392;DHT22;9322;50.932;5.318;2022-11-15T16:50:22;11.80;99.90
18392;DHT22;9322;50.932;5.318;2022-11-15T16:52:52;11.70;99.90
18392;DHT22;9322;50.932;5.318;2022-11-15T16:55:20;11.70;99.90
18392;DHT22;9322;50.932;5.318;2022-11-15T16:57:45;11.70;99.90
18392;DHT22;9322;50.932;5.318;2022-11-15T17:00:11;11.70;99.90
18392;DHT22;9322;50.932;5.318;2022-11-15T17:02:42;11.70;99.90
18392;DHT22;9322;50.932;5.318;2022-11-15T17:05:08;11.70;99.90
18392;DHT22;9322;50.932;5.318;2022-11-15T17:07:34;11.70;99.90
18392;DHT22;9322;50.932;5.318;2022-11-15T17:10:00;11.80;99.90
18392;DHT22;9322;50.932;5.318;2022-11-15T17:12:25;12.00;99.90
18392;DHT22;9322;50.932;5.318;2022-11-15T17:14:51;11.80;99.90
18392;DHT22;9322;50.932;5.318;2022-11-15T17:17:17;11.80;99.90
18392;DHT22;9322;50.932;5.318;2022-11-15T17:19:42;11.80;99.90
18392;DHT22;9322;50.932;5.318;2022-11-15T17:22:08;11.80;99.90
18392;DHT22;9322;50.932;5.318;2022-11-15T17:24:34;11.80;99.90
18392;DHT22;9322;50.932;5.318;2022-11-15T17:26:59;11.80;99.90
18392;DHT22;9322;50.932;5.318;2022-11-15T17:29:25;11.80;99.90
18392;DHT22;9322;50.932;5.318;2022-11-15T17:31:50;11.90;99.90
18392;DHT22;9322;50.932;5.318;2022-11-15T17:34:16;11.90;99.90
18392;DHT22;9322;50.932;5.318;2022-11-15T17:36:42;11.90;99.90
18392;DHT22;9322;50.932;5.318;2022-11-15T17:39:07;11.90;99.90
18392;DHT22;9322;50.932;5.318;2022-11-15T17:41:33;12.10;99.90
18392;DHT22;9322;50.932;5.318;2022-11-15T17:43:59;12.00;99.90
18392;DHT22;9322;50.932;5.318;2022-11-15T17:46:27;12.00;99.90
18392;DHT22;9322;50.932;5.318;2022-11-15T17:48:54;12.10;99.90
18392;DHT22;9322;50.932;5.318;2022-11-15T17:51:20;12.10;99.90
18392;DHT22;9322;50.932;5.318;2022-11-15T17:53:47;12.10;99.90
18392;DHT22;9322;50.932;5.318;2022-11-15T17:56:17;12.00;99.90
18392;DHT22;9322;50.932;5.318;2022-11-15T17:58:48;12.10;99.90
18392;DHT22;9322;50.932;5.318;2022-11-15T18:03:46;12.10;99.90
18392;DHT22;9322;50.932;5.318;2022-11-15T18:06:13;12.10;99.90
18392;DHT22;9322;50.932;5.318;2022-11-15T18:08:40;12.20;99.90
18392;DHT22;9322;50.932;5.318;2022-11-15T18:11:16;12.20;99.90
18392;DHT22;9322;50.932;5.318;2022-11-15T18:13:44;12.10;99.90
18392;DHT22;9322;50.932;5.318;2022-11-15T18:16:15;12.20;99.90
18392;DHT22;9322;50.932;5.318;2022-11-15T18:18:42;12.20;99.90
18392;DHT22;9322;50.932;5.318;2022-11-15T18:21:14;12.30;99.90
18392;DHT22;9322;50.932;5.318;2022-11-15T18:23:41;12.20;99.90